sensor_id;sensor_type;location;lat;lon;timestamp;P1;durP1;ratioP1;P2;durP2;ratioP2
9661;SDS011;24982;52.344;12.990;2023-11-21T00:00:18;14.43;;;8.05;;
9661;SDS011;24982;52.344;12.990;2023-11-21T00:03:20;13.75;;;7.65;;
9661;SDS011;24982;52.344;12.990;2023-11-21T00:06:25;13.77;;;7.50;;
9661;SDS011;24982;52.344;12.990;2023-11-21T00:09:27;14.43;;;8.07;;
9661;SDS011;24982;52.344;12.990;2023-11-21T00:12:28;11.30;;;7.38;;
9661;SDS011;24982;52.344;12.990;2023-11-21T00:15:31;12.65;;;7.80;;
9661;SDS011;24982;52.344;12.990;2023-11-21T00:18:33;13.05;;;7.50;;
9661;SDS011;24982;52.344;12.990;2023-11-21T00:21:37;13.88;;;8.15;;
9661;SDS011;24982;52.344;12.990;2023-11-21T00:24:39;16.50;;;8.90;;
9661;SDS011;24982;52.344;12.990;2023-11-21T00:27:41;14.38;;;8.35;;
9661;SDS011;24982;52.344;12.990;2023-11-21T00:30:43;12.88;;;8.00;;
9661;SDS011;24982;52.344;12.990;2023-11-21T00:33:45;15.38;;;8.57;;
9661;SDS011;24982;52.344;12.990;2023-11-21T00:36:49;16.63;;;9.13;;
9661;SDS011;24982;52.344;12.990;2023-11-21T00:39:50;10.93;;;8.35;;
9661;SDS011;24982;52.344;12.990;2023-11-21T00:42:52;11.38;;;7.63;;
9661;SDS011;24982;52.344;12.990;2023-11-21T00:45:56;10.98;;;7.70;;
9661;SDS011;24982;52.344;12.990;2023-11-21T00:48:58;9.90;;;7.65;;
9661;SDS011;24982;52.344;12.990;2023-11-21T00:52:02;10.52;;;7.22;;
9661;SDS011;24982;52.344;12.990;2023-11-21T00:55:05;11.30;;;6.82;;
9661;SDS011;24982;52.344;12.990;2023-11-21T00:58:08;9.63;;;6.43;;
9661;SDS011;24982;52.344;12.990;2023-11-21T01:01:10;7.18;;;5.68;;
9661;SDS011;24982;52.344;12.990;2023-11-21T01:04:12;5.55;;;5.05;;
9661;SDS011;24982;52.344;12.990;2023-11-21T01:07:16;6.63;;;3.95;;
9661;SDS011;24982;52.344;12.990;2023-11-21T01:10:20;2.35;;;2.15;;
9661;SDS011;24982;52.344;12.990;2023-11-21T01:13:22;2.33;;;2.22;;
9661;SDS011;24982;52.344;12.990;2023-11-21T01:16:27;2.00;;;1.90;;
9661;SDS011;24982;52.344;12.990;2023-11-21T01:19:30;3.05;;;2.83;;
9661;SDS011;24982;52.344;12.990;2023-11-21T01:22:33;3.80;;;3.50;;
9661;SDS011;24982;52.344;12.990;2023-11-21T01:25:35;4.30;;;3.97;;
9661;SDS011;24982;52.344;12.990;2023-11-21T01:28:37;5.03;;;4.55;;
9661;SDS011;24982;52.344;12.990;2023-11-21T01:31:39;5.15;;;4.28;;
9661;SDS011;24982;52.344;12.990;2023-11-21T01:34:41;5.32;;;4.85;;
9661;SDS011;24982;52.344;12.990;2023-11-21T01:37:45;6.40;;;5.80;;
9661;SDS011;24982;52.344;12.990;2023-11-21T01:40:48;8.48;;;7.00;;
9661;SDS011;24982;52.344;12.990;2023-11-21T01:43:50;10.23;;;8.52;;
9661;SDS011;24982;52.344;12.990;2023-11-21T01:46:53;11.50;;;9.45;;
9661;SDS011;24982;52.344;12.990;2023-11-21T01:49:57;12.88;;;10.30;;
9661;SDS011;24982;52.344;12.990;2023-11-21T01:53:01;12.70;;;9.40;;
9661;SDS011;24982;52.344;12.990;2023-11-21T01:56:04;12.50;;;9.73;;
9661;SDS011;24982;52.344;12.990;2023-11-21T01:59:08;12.10;;;8.98;;
9661;SDS011;24982;52.344;12.990;2023-11-21T02:02:11;12.82;;;8.90;;
9661;SDS011;24982;52.344;12.990;2023-11-21T02:05:13;10.88;;;8.80;;
9661;SDS011;24982;52.344;12.990;2023-11-21T02:08:19;14.18;;;8.70;;
9661;SDS011;24982;52.344;12.990;2023-11-21T02:11:21;11.32;;;8.35;;
9661;SDS011;24982;52.344;12.990;2023-11-21T02:14:24;12.95;;;8.35;;
9661;SDS011;24982;52.344;12.990;2023-11-21T02:17:28;12.48;;;9.10;;
9661;SDS011;24982;52.344;12.990;2023-11-21T02:20:31;12.45;;;8.10;;
9661;SDS011;24982;52.344;12.990;2023-11-21T02:23:36;10.35;;;8.32;;
9661;SDS011;24982;52.344;12.990;2023-11-21T02:26:42;9.13;;;7.78;;
9661;SDS011;24982;52.344;12.990;2023-11-21T02:29:44;10.30;;;7.80;;
9661;SDS011;24982;52.344;12.990;2023-11-21T02:32:46;10.57;;;7.60;;
9661;SDS011;24982;52.344;12.990;2023-11-21T02:35:48;8.00;;;7.20;;
9661;SDS011;24982;52.344;12.990;2023-11-21T02:38:52;8.88;;;7.85;;
9661;SDS011;24982;52.344;12.990;2023-11-21T02:41:54;10.38;;;6.80;;
9661;SDS011;24982;52.344;12.990;2023-11-21T02:44:56;7.25;;;6.50;;
9661;SDS011;24982;52.344;12.990;2023-11-21T02:47:58;9.20;;;7.13;;
9661;SDS011;24982;52.344;12.990;2023-11-21T02:51:00;8.38;;;7.57;;
9661;SDS011;24982;52.344;12.990;2023-11-21T02:54:04;8.23;;;7.43;;
9661;SDS011;24982;52.344;12.990;2023-11-21T02:57:08;8.82;;;8.02;;
9661;SDS011;24982;52.344;12.990;2023-11-21T03:00:10;8.88;;;8.00;;
9661;SDS011;24982;52.344;12.990;2023-11-21T03:03:15;9.48;;;7.70;;
9661;SDS011;24982;52.344;12.990;2023-11-21T03:06:17;8.25;;;7.00;;
9661;SDS011;24982;52.344;12.990;2023-11-21T03:09:21;8.25;;;7.45;;
9661;SDS011;24982;52.344;12.990;2023-11-21T03:12:23;7.68;;;7.03;;
9661;SDS011;24982;52.344;12.990;2023-11-21T03:15:25;8.00;;;7.20;;
9661;SDS011;24982;52.344;12.990;2023-11-21T03:18:27;8.52;;;7.68;;
9661;SDS011;24982;52.344;12.990;2023-11-21T03:21:29;7.95;;;7.25;;
9661;SDS011;24982;52.344;12.990;2023-11-21T03:24:32;7.85;;;7.07;;
9661;SDS011;24982;52.344;12.990;2023-11-21T03:27:34;7.72;;;6.78;;
9661;SDS011;24982;52.344;12.990;2023-11-21T03:30:36;7.88;;;7.07;;
9661;SDS011;24982;52.344;12.990;2023-11-21T03:33:38;7.18;;;6.57;;
9661;SDS011;24982;52.344;12.990;2023-11-21T03:36:40;7.82;;;7.13;;
9661;SDS011;24982;52.344;12.990;2023-11-21T03:39:43;8.05;;;7.18;;
9661;SDS011;24982;52.344;12.990;2023-11-21T03:42:45;7.60;;;6.90;;
9661;SDS011;24982;52.344;12.990;2023-11-21T03:45:47;9.00;;;8.10;;
9661;SDS011;24982;52.344;12.990;2023-11-21T03:48:51;9.10;;;8.20;;
9661;SDS011;24982;52.344;12.990;2023-11-21T03:51:53;8.55;;;7.68;;
9661;SDS011;24982;52.344;12.990;2023-11-21T03:54:56;8.70;;;7.90;;
9661;SDS011;24982;52.344;12.990;2023-11-21T03:57:58;9.15;;;8.27;;
9661;SDS011;24982;52.344;12.990;2023-11-21T04:01:00;9.02;;;8.23;;
9661;SDS011;24982;52.344;12.990;2023-11-21T04:04:02;8.85;;;8.05;;
9661;SDS011;24982;52.344;12.990;2023-11-21T04:07:05;8.90;;;8.00;;
9661;SDS011;24982;52.344;12.990;2023-11-21T04:10:08;9.10;;;8.25;;
9661;SDS011;24982;52.344;12.990;2023-11-21T04:13:12;9.18;;;8.27;;
9661;SDS011;24982;52.344;12.990;2023-11-21T04:16:14;10.00;;;9.10;;
9661;SDS011;24982;52.344;12.990;2023-11-21T04:19:17;9.60;;;8.70;;
9661;SDS011;24982;52.344;12.990;2023-11-21T04:22:18;10.07;;;8.40;;
9661;SDS011;24982;52.344;12.990;2023-11-21T04:25:22;8.48;;;7.78;;
9661;SDS011;24982;52.344;12.990;2023-11-21T04:28:24;10.02;;;9.02;;
9661;SDS011;24982;52.344;12.990;2023-11-21T04:31:26;10.13;;;9.23;;
9661;SDS011;24982;52.344;12.990;2023-11-21T04:34:28;11.57;;;8.85;;
9661;SDS011;24982;52.344;12.990;2023-11-21T04:37:31;9.73;;;8.80;;
9661;SDS011;24982;52.344;12.990;2023-11-21T04:40:34;9.40;;;8.30;;
9661;SDS011;24982;52.344;12.990;2023-11-21T04:43:36;10.52;;;9.20;;
9661;SDS011;24982;52.344;12.990;2023-11-21T04:46:38;10.48;;;9.02;;
9661;SDS011;24982;52.344;12.990;2023-11-21T04:49:41;9.93;;;8.85;;
9661;SDS011;24982;52.344;12.990;2023-11-21T04:52:44;9.13;;;8.23;;
9661;SDS011;24982;52.344;12.990;2023-11-21T04:55:47;9.70;;;8.80;;
9661;SDS011;24982;52.344;12.990;2023-11-21T04:58:49;9.93;;;8.93;;
9661;SDS011;24982;52.344;12.990;2023-11-21T05:01:52;9.57;;;8.68;;
9661;SDS011;24982;52.344;12.990;2023-11-21T05:04:54;9.18;;;8.38;;
9661;SDS011;24982;52.344;12.990;2023-11-21T05:07:56;9.88;;;8.90;;
9661;SDS011;24982;52.344;12.990;2023-11-21T05:10:59;10.07;;;9.18;;
9661;SDS011;24982;52.344;12.990;2023-11-21T05:14:02;11.70;;;10.05;;
9661;SDS011;24982;52.344;12.990;2023-11-21T05:17:05;10.80;;;9.73;;
9661;SDS011;24982;52.344;12.990;2023-11-21T05:20:08;11.15;;;10.05;;
9661;SDS011;24982;52.344;12.990;2023-11-21T05:23:11;12.43;;;10.30;;
9661;SDS011;24982;52.344;12.990;2023-11-21T05:26:15;12.43;;;10.63;;
9661;SDS011;24982;52.344;12.990;2023-11-21T05:29:17;12.52;;;11.20;;
9661;SDS011;24982;52.344;12.990;2023-11-21T05:32:18;11.70;;;10.50;;
9661;SDS011;24982;52.344;12.990;2023-11-21T05:35:20;12.60;;;11.30;;
9661;SDS011;24982;52.344;12.990;2023-11-21T05:38:22;12.05;;;10.85;;
9661;SDS011;24982;52.344;12.990;2023-11-21T05:41:26;11.98;;;10.77;;
9661;SDS011;24982;52.344;12.990;2023-11-21T05:44:28;12.18;;;10.52;;
9661;SDS011;24982;52.344;12.990;2023-11-21T05:47:30;11.98;;;10.70;;
9661;SDS011;24982;52.344;12.990;2023-11-21T05:50:32;12.95;;;11.65;;
9661;SDS011;24982;52.344;12.990;2023-11-21T05:53:34;11.55;;;10.38;;
9661;SDS011;24982;52.344;12.990;2023-11-21T05:56:38;11.70;;;10.52;;
9661;SDS011;24982;52.344;12.990;2023-11-21T05:59:40;12.63;;;10.52;;
9661;SDS011;24982;52.344;12.990;2023-11-21T06:02:42;12.55;;;10.45;;
9661;SDS011;24982;52.344;12.990;2023-11-21T06:05:45;11.23;;;10.05;;
9661;SDS011;24982;52.344;12.990;2023-11-21T06:08:47;13.73;;;10.30;;
9661;SDS011;24982;52.344;12.990;2023-11-21T06:11:51;11.43;;;10.23;;
9661;SDS011;24982;52.344;12.990;2023-11-21T06:14:52;13.93;;;10.85;;
9661;SDS011;24982;52.344;12.990;2023-11-21T06:17:55;16.55;;;10.57;;
9661;SDS011;24982;52.344;12.990;2023-11-21T06:20:58;17.70;;;12.10;;
9661;SDS011;24982;52.344;12.990;2023-11-21T06:24:01;33.83;;;17.38;;
9661;SDS011;24982;52.344;12.990;2023-11-21T06:27:05;23.90;;;15.88;;
9661;SDS011;24982;52.344;12.990;2023-11-21T06:30:08;16.25;;;14.20;;
9661;SDS011;24982;52.344;12.990;2023-11-21T06:33:11;14.75;;;12.32;;
9661;SDS011;24982;52.344;12.990;2023-11-21T06:36:13;20.08;;;15.02;;
9661;SDS011;24982;52.344;12.990;2023-11-21T06:39:16;20.08;;;16.08;;
9661;SDS011;24982;52.344;12.990;2023-11-21T06:42:20;15.30;;;12.23;;
9661;SDS011;24982;52.344;12.990;2023-11-21T06:45:22;14.45;;;11.25;;
9661;SDS011;24982;52.344;12.990;2023-11-21T06:48:24;14.65;;;11.68;;
9661;SDS011;24982;52.344;12.990;2023-11-21T06:51:26;12.85;;;11.23;;
9661;SDS011;24982;52.344;12.990;2023-11-21T06:54:28;12.48;;;10.60;;
9661;SDS011;24982;52.344;12.990;2023-11-21T06:57:33;15.68;;;11.63;;
9661;SDS011;24982;52.344;12.990;2023-11-21T07:00:35;15.05;;;11.73;;
9661;SDS011;24982;52.344;12.990;2023-11-21T07:03:37;18.48;;;13.40;;
9661;SDS011;24982;52.344;12.990;2023-11-21T07:06:39;17.83;;;13.95;;
9661;SDS011;24982;52.344;12.990;2023-11-21T07:09:41;15.15;;;11.65;;
9661;SDS011;24982;52.344;12.990;2023-11-21T07:12:44;15.05;;;12.00;;
9661;SDS011;24982;52.344;12.990;2023-11-21T07:15:46;13.73;;;10.43;;
9661;SDS011;24982;52.344;12.990;2023-11-21T07:18:49;12.40;;;9.68;;
9661;SDS011;24982;52.344;12.990;2023-11-21T07:21:52;10.63;;;9.52;;
9661;SDS011;24982;52.344;12.990;2023-11-21T07:24:54;13.88;;;10.90;;
9661;SDS011;24982;52.344;12.990;2023-11-21T07:27:58;12.82;;;10.50;;
9661;SDS011;24982;52.344;12.990;2023-11-21T07:31:03;17.77;;;12.32;;
9661;SDS011;24982;52.344;12.990;2023-11-21T07:34:05;17.42;;;10.85;;
9661;SDS011;24982;52.344;12.990;2023-11-21T07:37:08;15.73;;;10.82;;
9661;SDS011;24982;52.344;12.990;2023-11-21T07:40:10;14.07;;;10.23;;
9661;SDS011;24982;52.344;12.990;2023-11-21T07:43:15;12.93;;;8.45;;
9661;SDS011;24982;52.344;12.990;2023-11-21T07:46:16;12.02;;;8.00;;
9661;SDS011;24982;52.344;12.990;2023-11-21T07:49:19;9.50;;;7.78;;
9661;SDS011;24982;52.344;12.990;2023-11-21T07:52:23;9.82;;;7.55;;
9661;SDS011;24982;52.344;12.990;2023-11-21T07:55:25;12.82;;;8.32;;
9661;SDS011;24982;52.344;12.990;2023-11-21T07:58:28;24.42;;;13.15;;
9661;SDS011;24982;52.344;12.990;2023-11-21T08:01:31;20.45;;;11.98;;
9661;SDS011;24982;52.344;12.990;2023-11-21T08:04:33;11.77;;;8.85;;
9661;SDS011;24982;52.344;12.990;2023-11-21T08:07:35;9.07;;;6.95;;
9661;SDS011;24982;52.344;12.990;2023-11-21T08:10:37;9.18;;;8.18;;
9661;SDS011;24982;52.344;12.990;2023-11-21T08:13:41;10.18;;;7.72;;
9661;SDS011;24982;52.344;12.990;2023-11-21T08:16:43;8.18;;;7.38;;
9661;SDS011;24982;52.344;12.990;2023-11-21T08:19:45;9.02;;;7.80;;
9661;SDS011;24982;52.344;12.990;2023-11-21T08:22:49;11.15;;;7.90;;
9661;SDS011;24982;52.344;12.990;2023-11-21T08:25:52;14.52;;;8.50;;
9661;SDS011;24982;52.344;12.990;2023-11-21T08:28:56;9.80;;;7.60;;
9661;SDS011;24982;52.344;12.990;2023-11-21T08:31:58;10.15;;;7.43;;
9661;SDS011;24982;52.344;12.990;2023-11-21T08:35:00;8.95;;;7.60;;
9661;SDS011;24982;52.344;12.990;2023-11-21T08:38:02;10.25;;;7.65;;
9661;SDS011;24982;52.344;12.990;2023-11-21T08:41:05;8.43;;;7.38;;
9661;SDS011;24982;52.344;12.990;2023-11-21T08:44:10;8.45;;;7.03;;
9661;SDS011;24982;52.344;12.990;2023-11-21T08:47:12;7.30;;;6.60;;
9661;SDS011;24982;52.344;12.990;2023-11-21T08:50:14;7.38;;;6.60;;
9661;SDS011;24982;52.344;12.990;2023-11-21T08:53:16;9.80;;;7.22;;
9661;SDS011;24982;52.344;12.990;2023-11-21T08:56:18;7.57;;;6.80;;
9661;SDS011;24982;52.344;12.990;2023-11-21T08:59:22;7.20;;;6.50;;
9661;SDS011;24982;52.344;12.990;2023-11-21T09:02:25;6.82;;;6.13;;
9661;SDS011;24982;52.344;12.990;2023-11-21T09:05:27;5.55;;;5.03;;
9661;SDS011;24982;52.344;12.990;2023-11-21T09:08:30;6.00;;;5.50;;
9661;SDS011;24982;52.344;12.990;2023-11-21T09:11:32;6.10;;;5.20;;
9661;SDS011;24982;52.344;12.990;2023-11-21T09:14:37;5.57;;;5.07;;
9661;SDS011;24982;52.344;12.990;2023-11-21T09:17:39;5.80;;;5.30;;
9661;SDS011;24982;52.344;12.990;2023-11-21T09:20:41;7.05;;;5.43;;
9661;SDS011;24982;52.344;12.990;2023-11-21T09:23:44;6.28;;;5.72;;
9661;SDS011;24982;52.344;12.990;2023-11-21T09:26:46;5.80;;;5.30;;
9661;SDS011;24982;52.344;12.990;2023-11-21T09:29:49;6.88;;;5.40;;
9661;SDS011;24982;52.344;12.990;2023-11-21T09:32:51;5.63;;;5.10;;
9661;SDS011;24982;52.344;12.990;2023-11-21T09:35:53;4.75;;;4.35;;
9661;SDS011;24982;52.344;12.990;2023-11-21T09:38:55;5.07;;;4.68;;
9661;SDS011;24982;52.344;12.990;2023-11-21T09:41:57;5.78;;;4.78;;
9661;SDS011;24982;52.344;12.990;2023-11-21T09:45:09;4.97;;;4.57;;
9661;SDS011;24982;52.344;12.990;2023-11-21T09:48:20;5.45;;;4.90;;
9661;SDS011;24982;52.344;12.990;2023-11-21T09:51:22;5.35;;;4.85;;
9661;SDS011;24982;52.344;12.990;2023-11-21T09:54:30;5.28;;;4.78;;
9661;SDS011;24982;52.344;12.990;2023-11-21T09:57:33;4.82;;;4.38;;
9661;SDS011;24982;52.344;12.990;2023-11-21T10:00:37;4.63;;;4.22;;
9661;SDS011;24982;52.344;12.990;2023-11-21T10:03:44;4.60;;;4.20;;
9661;SDS011;24982;52.344;12.990;2023-11-21T10:06:47;4.40;;;4.00;;
9661;SDS011;24982;52.344;12.990;2023-11-21T10:09:50;4.15;;;3.85;;
9661;SDS011;24982;52.344;12.990;2023-11-21T10:12:54;7.95;;;4.13;;
9661;SDS011;24982;52.344;12.990;2023-11-21T10:15:59;4.80;;;4.30;;
9661;SDS011;24982;52.344;12.990;2023-11-21T10:19:05;5.15;;;4.63;;
9661;SDS011;24982;52.344;12.990;2023-11-21T10:22:09;5.63;;;4.43;;
9661;SDS011;24982;52.344;12.990;2023-11-21T10:25:12;5.45;;;4.05;;
9661;SDS011;24982;52.344;12.990;2023-11-21T10:28:14;4.78;;;4.38;;
9661;SDS011;24982;52.344;12.990;2023-11-21T10:31:18;4.22;;;3.92;;
9661;SDS011;24982;52.344;12.990;2023-11-21T10:34:20;4.63;;;4.32;;
9661;SDS011;24982;52.344;12.990;2023-11-21T10:37:22;6.10;;;5.15;;
9661;SDS011;24982;52.344;12.990;2023-11-21T10:40:27;6.25;;;5.65;;
9661;SDS011;24982;52.344;12.990;2023-11-21T10:43:29;5.05;;;4.65;;
9661;SDS011;24982;52.344;12.990;2023-11-21T10:46:33;4.70;;;4.30;;
9661;SDS011;24982;52.344;12.990;2023-11-21T10:49:35;4.10;;;3.80;;
9661;SDS011;24982;52.344;12.990;2023-11-21T10:52:42;4.20;;;3.90;;
9661;SDS011;24982;52.344;12.990;2023-11-21T10:55:47;4.35;;;4.05;;
9661;SDS011;24982;52.344;12.990;2023-11-21T10:58:49;4.05;;;3.75;;
9661;SDS011;24982;52.344;12.990;2023-11-21T11:01:53;4.53;;;4.13;;
9661;SDS011;24982;52.344;12.990;2023-11-21T11:04:58;3.90;;;3.65;;
9661;SDS011;24982;52.344;12.990;2023-11-21T11:08:02;4.38;;;4.07;;
9661;SDS011;24982;52.344;12.990;2023-11-21T11:11:06;5.72;;;4.50;;
9661;SDS011;24982;52.344;12.990;2023-11-21T11:14:10;5.38;;;4.82;;
9661;SDS011;24982;52.344;12.990;2023-11-21T11:17:14;4.63;;;4.22;;
9661;SDS011;24982;52.344;12.990;2023-11-21T11:20:17;5.53;;;4.38;;
9661;SDS011;24982;52.344;12.990;2023-11-21T11:23:29;6.03;;;4.85;;
9661;SDS011;24982;52.344;12.990;2023-11-21T11:26:42;5.05;;;4.65;;
9661;SDS011;24982;52.344;12.990;2023-11-21T11:29:49;5.88;;;5.38;;
9661;SDS011;24982;52.344;12.990;2023-11-21T11:33:14;5.47;;;4.90;;
9661;SDS011;24982;52.344;12.990;2023-11-21T11:36:28;5.35;;;4.95;;
9661;SDS011;24982;52.344;12.990;2023-11-21T11:39:35;4.82;;;4.43;;
9661;SDS011;24982;52.344;12.990;2023-11-21T11:42:37;4.50;;;4.20;;
9661;SDS011;24982;52.344;12.990;2023-11-21T11:45:40;6.50;;;4.60;;
9661;SDS011;24982;52.344;12.990;2023-11-21T11:48:44;4.93;;;4.55;;
9661;SDS011;24982;52.344;12.990;2023-11-21T11:51:46;5.28;;;4.78;;
9661;SDS011;24982;52.344;12.990;2023-11-21T11:54:48;5.18;;;4.72;;
9661;SDS011;24982;52.344;12.990;2023-11-21T11:57:53;5.03;;;4.72;;
9661;SDS011;24982;52.344;12.990;2023-11-21T12:00:55;4.70;;;4.30;;
9661;SDS011;24982;52.344;12.990;2023-11-21T12:07:39;4.88;;;4.47;;
9661;SDS011;24982;52.344;12.990;2023-11-21T12:10:49;4.47;;;4.15;;
9661;SDS011;24982;52.344;12.990;2023-11-21T12:13:54;6.72;;;6.13;;
9661;SDS011;24982;52.344;12.990;2023-11-21T12:16:56;9.48;;;6.45;;
9661;SDS011;24982;52.344;12.990;2023-11-21T12:20:02;7.05;;;6.45;;
9661;SDS011;24982;52.344;12.990;2023-11-21T12:23:06;6.80;;;6.20;;
9661;SDS011;24982;52.344;12.990;2023-11-21T12:26:09;7.38;;;5.95;;
9661;SDS011;24982;52.344;12.990;2023-11-21T12:29:11;7.43;;;6.72;;
9661;SDS011;24982;52.344;12.990;2023-11-21T12:32:13;8.63;;;7.10;;
9661;SDS011;24982;52.344;12.990;2023-11-21T12:35:19;8.00;;;7.25;;
9661;SDS011;24982;52.344;12.990;2023-11-21T12:38:21;8.52;;;7.70;;
9661;SDS011;24982;52.344;12.990;2023-11-21T12:41:24;16.13;;;11.57;;
9661;SDS011;24982;52.344;12.990;2023-11-21T12:44:27;42.70;;;23.00;;
9661;SDS011;24982;52.344;12.990;2023-11-21T12:47:29;35.30;;;19.55;;
9661;SDS011;24982;52.344;12.990;2023-11-21T12:50:33;21.35;;;13.45;;
9661;SDS011;24982;52.344;12.990;2023-11-21T12:53:37;8.70;;;7.80;;
9661;SDS011;24982;52.344;12.990;2023-11-21T12:56:39;5.82;;;5.35;;
9661;SDS011;24982;52.344;12.990;2023-11-21T12:59:41;8.32;;;7.47;;
9661;SDS011;24982;52.344;12.990;2023-11-21T13:02:46;9.45;;;7.25;;
9661;SDS011;24982;52.344;12.990;2023-11-21T13:05:50;6.80;;;6.20;;
9661;SDS011;24982;52.344;12.990;2023-11-21T13:08:54;6.97;;;6.38;;
9661;SDS011;24982;52.344;12.990;2023-11-21T13:11:59;5.60;;;5.18;;
9661;SDS011;24982;52.344;12.990;2023-11-21T13:15:03;7.25;;;6.55;;
9661;SDS011;24982;52.344;12.990;2023-11-21T13:18:07;7.53;;;6.75;;
9661;SDS011;24982;52.344;12.990;2023-11-21T13:21:12;7.88;;;7.07;;
9661;SDS011;24982;52.344;12.990;2023-11-21T13:24:15;8.32;;;6.57;;
9661;SDS011;24982;52.344;12.990;2023-11-21T13:27:18;6.72;;;5.65;;
9661;SDS011;24982;52.344;12.990;2023-11-21T13:30:20;6.85;;;6.15;;
9661;SDS011;24982;52.344;12.990;2023-11-21T13:33:26;6.22;;;5.57;;
9661;SDS011;24982;52.344;12.990;2023-11-21T13:36:30;5.40;;;4.93;;
9661;SDS011;24982;52.344;12.990;2023-11-21T13:39:33;5.70;;;4.82;;
9661;SDS011;24982;52.344;12.990;2023-11-21T13:42:35;4.88;;;4.38;;
9661;SDS011;24982;52.344;12.990;2023-11-21T13:45:37;6.40;;;5.68;;
9661;SDS011;24982;52.344;12.990;2023-11-21T13:48:40;6.90;;;6.20;;
9661;SDS011;24982;52.344;12.990;2023-11-21T13:51:43;9.32;;;6.90;;
9661;SDS011;24982;52.344;12.990;2023-11-21T13:54:48;8.40;;;5.68;;
9661;SDS011;24982;52.344;12.990;2023-11-21T13:57:51;8.80;;;4.93;;
9661;SDS011;24982;52.344;12.990;2023-11-21T14:00:53;6.60;;;5.03;;
9661;SDS011;24982;52.344;12.990;2023-11-21T14:03:57;5.30;;;4.80;;
9661;SDS011;24982;52.344;12.990;2023-11-21T14:07:09;5.00;;;4.50;;
9661;SDS011;24982;52.344;12.990;2023-11-21T14:10:25;5.78;;;4.82;;
9661;SDS011;24982;52.344;12.990;2023-11-21T14:13:27;5.30;;;4.90;;
9661;SDS011;24982;52.344;12.990;2023-11-21T14:16:29;5.72;;;4.72;;
9661;SDS011;24982;52.344;12.990;2023-11-21T14:19:30;5.28;;;4.78;;
9661;SDS011;24982;52.344;12.990;2023-11-21T14:22:35;6.07;;;5.57;;
9661;SDS011;24982;52.344;12.990;2023-11-21T14:25:37;5.80;;;5.30;;
9661;SDS011;24982;52.344;12.990;2023-11-21T14:28:39;6.35;;;5.78;;
9661;SDS011;24982;52.344;12.990;2023-11-21T14:31:42;6.47;;;5.90;;
9661;SDS011;24982;52.344;12.990;2023-11-21T14:34:44;6.88;;;6.18;;
9661;SDS011;24982;52.344;12.990;2023-11-21T14:37:49;7.43;;;6.70;;
9661;SDS011;24982;52.344;12.990;2023-11-21T14:40:51;8.20;;;6.53;;
9661;SDS011;24982;52.344;12.990;2023-11-21T14:43:53;8.23;;;6.82;;
9661;SDS011;24982;52.344;12.990;2023-11-21T14:46:55;7.95;;;7.22;;
9661;SDS011;24982;52.344;12.990;2023-11-21T14:49:58;8.25;;;7.45;;
9661;SDS011;24982;52.344;12.990;2023-11-21T14:53:07;9.45;;;8.35;;
9661;SDS011;24982;52.344;12.990;2023-11-21T14:56:09;10.57;;;9.48;;
9661;SDS011;24982;52.344;12.990;2023-11-21T14:59:18;10.98;;;9.48;;
9661;SDS011;24982;52.344;12.990;2023-11-21T15:02:20;10.88;;;9.45;;
9661;SDS011;24982;52.344;12.990;2023-11-21T15:05:22;10.77;;;9.68;;
9661;SDS011;24982;52.344;12.990;2023-11-21T15:08:27;10.35;;;9.30;;
9661;SDS011;24982;52.344;12.990;2023-11-21T15:11:32;9.63;;;8.63;;
9661;SDS011;24982;52.344;12.990;2023-11-21T15:14:34;9.80;;;8.80;;
9661;SDS011;24982;52.344;12.990;2023-11-21T15:17:36;11.60;;;9.23;;
9661;SDS011;24982;52.344;12.990;2023-11-21T15:20:39;10.18;;;9.15;;
9661;SDS011;24982;52.344;12.990;2023-11-21T15:23:43;11.02;;;9.93;;
9661;SDS011;24982;52.344;12.990;2023-11-21T15:26:45;12.00;;;9.43;;
9661;SDS011;24982;52.344;12.990;2023-11-21T15:29:47;13.15;;;9.90;;
9661;SDS011;24982;52.344;12.990;2023-11-21T15:32:50;13.23;;;9.75;;
9661;SDS011;24982;52.344;12.990;2023-11-21T15:35:53;13.05;;;10.18;;
9661;SDS011;24982;52.344;12.990;2023-11-21T15:38:56;14.88;;;11.80;;
9661;SDS011;24982;52.344;12.990;2023-11-21T15:41:58;18.27;;;11.23;;
9661;SDS011;24982;52.344;12.990;2023-11-21T15:45:01;16.02;;;12.63;;
9661;SDS011;24982;52.344;12.990;2023-11-21T15:48:05;16.65;;;11.05;;
9661;SDS011;24982;52.344;12.990;2023-11-21T15:51:07;13.68;;;10.55;;
9661;SDS011;24982;52.344;12.990;2023-11-21T15:54:13;12.35;;;10.88;;
9661;SDS011;24982;52.344;12.990;2023-11-21T15:57:15;12.02;;;10.55;;
9661;SDS011;24982;52.344;12.990;2023-11-21T16:00:19;13.25;;;10.90;;
9661;SDS011;24982;52.344;12.990;2023-11-21T16:03:22;13.35;;;10.07;;
9661;SDS011;24982;52.344;12.990;2023-11-21T16:06:24;12.13;;;10.60;;
9661;SDS011;24982;52.344;12.990;2023-11-21T16:09:28;14.23;;;11.23;;
9661;SDS011;24982;52.344;12.990;2023-11-21T16:12:31;12.70;;;10.40;;
9661;SDS011;24982;52.344;12.990;2023-11-21T16:15:33;12.13;;;10.82;;
9661;SDS011;24982;52.344;12.990;2023-11-21T16:18:35;15.70;;;11.15;;
9661;SDS011;24982;52.344;12.990;2023-11-21T16:21:37;15.05;;;11.48;;
9661;SDS011;24982;52.344;12.990;2023-11-21T16:24:40;14.95;;;11.43;;
9661;SDS011;24982;52.344;12.990;2023-11-21T16:27:42;14.15;;;11.38;;
9661;SDS011;24982;52.344;12.990;2023-11-21T16:30:45;17.85;;;12.02;;
9661;SDS011;24982;52.344;12.990;2023-11-21T16:33:47;14.38;;;11.55;;
9661;SDS011;24982;52.344;12.990;2023-11-21T16:36:49;14.05;;;10.93;;
9661;SDS011;24982;52.344;12.990;2023-11-21T16:39:52;12.75;;;10.75;;
9661;SDS011;24982;52.344;12.990;2023-11-21T16:42:54;14.43;;;11.38;;
9661;SDS011;24982;52.344;12.990;2023-11-21T16:45:57;12.77;;;10.90;;
9661;SDS011;24982;52.344;12.990;2023-11-21T16:48:59;12.60;;;10.75;;
9661;SDS011;24982;52.344;12.990;2023-11-21T16:52:01;13.70;;;10.68;;
9661;SDS011;24982;52.344;12.990;2023-11-21T16:55:05;15.35;;;11.40;;
9661;SDS011;24982;52.344;12.990;2023-11-21T16:58:09;13.27;;;11.32;;
9661;SDS011;24982;52.344;12.990;2023-11-21T17:01:12;13.63;;;12.20;;
9661;SDS011;24982;52.344;12.990;2023-11-21T17:04:13;14.13;;;11.10;;
9661;SDS011;24982;52.344;12.990;2023-11-21T17:07:17;15.90;;;12.23;;
9661;SDS011;24982;52.344;12.990;2023-11-21T17:10:23;13.25;;;11.55;;
9661;SDS011;24982;52.344;12.990;2023-11-21T17:13:25;14.45;;;12.52;;
9661;SDS011;24982;52.344;12.990;2023-11-21T17:16:28;12.75;;;11.30;;
9661;SDS011;24982;52.344;12.990;2023-11-21T17:19:30;13.98;;;11.48;;
9661;SDS011;24982;52.344;12.990;2023-11-21T17:22:34;14.00;;;12.02;;
9661;SDS011;24982;52.344;12.990;2023-11-21T17:25:37;13.02;;;11.70;;
9661;SDS011;24982;52.344;12.990;2023-11-21T17:28:41;14.80;;;12.18;;
9661;SDS011;24982;52.344;12.990;2023-11-21T17:31:43;14.10;;;11.98;;
9661;SDS011;24982;52.344;12.990;2023-11-21T17:34:45;15.25;;;12.73;;
9661;SDS011;24982;52.344;12.990;2023-11-21T17:37:48;13.73;;;12.23;;
9661;SDS011;24982;52.344;12.990;2023-11-21T17:40:51;13.98;;;12.15;;
9661;SDS011;24982;52.344;12.990;2023-11-21T17:43:53;13.65;;;12.05;;
9661;SDS011;24982;52.344;12.990;2023-11-21T17:46:55;14.00;;;11.85;;
9661;SDS011;24982;52.344;12.990;2023-11-21T17:49:57;12.27;;;10.98;;
9661;SDS011;24982;52.344;12.990;2023-11-21T17:52:59;12.02;;;10.43;;
9661;SDS011;24982;52.344;12.990;2023-11-21T17:56:03;11.75;;;10.43;;
9661;SDS011;24982;52.344;12.990;2023-11-21T17:59:05;13.48;;;9.85;;
9661;SDS011;24982;52.344;12.990;2023-11-21T18:02:07;11.73;;;10.20;;
9661;SDS011;24982;52.344;12.990;2023-11-21T18:05:10;10.40;;;9.30;;
9661;SDS011;24982;52.344;12.990;2023-11-21T18:08:13;11.40;;;9.23;;
9661;SDS011;24982;52.344;12.990;2023-11-21T18:11:17;9.50;;;8.55;;
9661;SDS011;24982;52.344;12.990;2023-11-21T18:14:18;9.90;;;8.90;;